Time;durP1;ratioP1;P1;durP2;ratioP2;P2;SDS_P1;SDS_P2;PMS_P1;PMS_P2;Temp;Humidity;BMP_temperature;BMP_pressure;BME280_temperature;BME280_humidity;BME280_pressure;Samples;Min_cycle;Max_cycle;Signal;HPM_P1;HPM_P2
2021/01/10 00:01:20;;;;;;;38.13;28.60;;;;;;;0.98;70.69;101004.33;125353;1127;22497;-78
2021/01/10 00:03:48;;;;;;;34.40;26.97;;;;;;;0.96;70.34;101006.17;125403;1127;22459;-77
2021/01/10 00:06:17;;;;;;;37.45;27.48;;;;;;;0.96;70.70;100999.20;125405;1127;22443;-78
2021/01/10 00:08:45;;;;;;;42.98;30.00;;;;;;;0.96;71.12;101000.97;125391;1130;22444;-77
2021/01/10 00:11:13;;;;;;;44.03;30.10;;;;;;;0.96;70.86;101004.40;125382;1127;22437;-77
2021/01/10 00:13:41;;;;;;;42.70;31.05;;;;;;;0.98;71.18;101006.93;125391;1126;23272;-77
2021/01/10 00:16:09;;;;;;;35.63;29.40;;;;;;;0.94;70.93;101009.70;125365;1127;22440;-76
2021/01/10 00:18:38;;;;;;;40.57;29.93;;;;;;;0.94;71.45;101011.48;125358;1127;22439;-78
2021/01/10 00:21:06;;;;;;;41.10;30.37;;;;;;;0.98;71.18;101017.34;125445;1126;22538;-76
2021/01/10 00:23:34;;;;;;;36.93;30.00;;;;;;;0.98;71.55;101015.56;125377;1127;22538;-78
2021/01/10 00:26:03;;;;;;;43.35;31.42;;;;;;;0.94;71.25;101014.91;125360;1129;22494;-76
2021/01/10 00:28:32;;;;;;;44.58;30.43;;;;;;;0.91;70.99;101012.48;125405;1127;22459;-76
2021/01/10 00:31:00;;;;;;;41.55;30.23;;;;;;;0.92;71.66;101010.72;125343;1127;24539;-76
2021/01/10 00:33:28;;;;;;;41.60;31.40;;;;;;;0.93;71.14;101018.45;125387;1127;22502;-76
2021/01/10 00:35:57;;;;;;;49.95;33.08;;;;;;;0.94;71.85;101012.31;125422;1127;22459;-76
2021/01/10 00:38:25;;;;;;;46.08;32.45;;;;;;;0.97;71.58;101018.24;125439;1127;22589;-76
2021/01/10 00:40:53;;;;;;;47.15;33.48;;;;;;;0.93;71.68;101010.64;125385;1127;23456;-76
2021/01/10 00:43:21;;;;;;;49.95;35.65;;;;;;;0.90;71.81;101021.23;125407;1129;23311;-76
2021/01/10 00:45:50;;;;;;;50.83;34.33;;;;;;;0.89;72.46;101016.92;125345;1127;22441;-76
2021/01/10 00:48:18;;;;;;;57.00;37.58;;;;;;;0.92;71.45;101014.15;125365;1127;22435;-76
2021/01/10 00:50:46;;;;;;;59.23;41.15;;;;;;;0.92;71.91;101010.72;125408;1127;22530;-76
2021/01/10 00:53:15;;;;;;;50.60;34.95;;;;;;;0.91;71.91;101014.25;125344;1127;24573;-75
2021/01/10 00:55:43;;;;;;;44.77;33.92;;;;;;;0.89;71.86;101019.53;125384;1131;22459;-76
2021/01/10 00:58:12;;;;;;;43.52;32.10;;;;;;;0.85;72.22;101020.64;125400;1127;22444;-77
2021/01/10 01:00:41;;;;;;;45.67;32.25;;;;;;;0.83;72.49;101025.08;125407;1126;25112;-76
2021/01/10 01:03:10;;;;;;;40.35;30.32;;;;;;;0.84;71.77;101025.95;125389;1127;22538;-76
2021/01/10 01:05:40;;;;;;;44.70;33.18;;;;;;;0.85;72.37;101018.04;125406;1126;22439;-77
2021/01/10 01:08:09;;;;;;;48.98;32.63;;;;;;;0.86;72.82;101022.30;125429;1127;22434;-76
2021/01/10 01:10:49;;;;;;;47.30;33.27;;;;;;;0.89;73.20;101021.30;125344;1127;22437;-76
2021/01/10 01:13:18;;;;;;;47.33;34.50;;;;;;;0.92;72.32;101019.35;125396;1127;24281;-76
2021/01/10 01:15:52;;;;;;;54.10;34.90;;;;;;;0.99;72.60;101019.00;125425;1129;22586;-76
2021/01/10 01:18:20;;;;;;;49.13;32.47;;;;;;;0.98;72.23;101017.34;125391;1130;22852;-76
2021/01/10 01:20:50;;;;;;;46.80;32.25;;;;;;;0.99;72.87;101024.20;125416;1127;22446;-76
2021/01/10 01:23:19;;;;;;;45.50;31.70;;;;;;;1.00;72.41;101025.87;125376;1127;22986;-76
2021/01/10 01:25:49;;;;;;;53.00;34.75;;;;;;;1.00;72.43;101023.27;125384;1127;25103;-76
2021/01/10 01:28:17;;;;;;;49.40;32.45;;;;;;;1.03;72.68;101025.69;125386;1127;22451;-75
2021/01/10 01:30:46;;;;;;;43.48;31.40;;;;;;;1.06;73.01;101033.32;125412;1127;22452;-76
2021/01/10 01:33:14;;;;;;;48.10;31.70;;;;;;;1.04;72.79;101023.02;125387;1127;24645;-76
2021/01/10 01:35:42;;;;;;;44.27;32.23;;;;;;;1.06;73.14;101022.91;125409;1127;22545;-76
2021/01/10 01:38:11;;;;;;;43.60;32.25;;;;;;;1.04;72.26;101027.39;125380;1127;22447;-76
2021/01/10 01:40:39;;;;;;;43.13;31.90;;;;;;;1.02;72.19;101032.66;125414;1127;22457;-76
2021/01/10 01:43:08;;;;;;;42.40;31.02;;;;;;;1.04;72.77;101029.98;125300;1130;23471;-76
2021/01/10 01:45:36;;;;;;;41.75;31.42;;;;;;;1.05;72.65;101029.05;125392;1127;22457;-76
2021/01/10 01:48:05;;;;;;;41.68;29.77;;;;;;;1.05;72.24;101027.28;125410;1127;22448;-76
2021/01/10 01:50:34;;;;;;;38.30;29.20;;;;;;;1.02;72.96;101031.83;125430;1127;23314;-76
2021/01/10 01:53:02;;;;;;;44.73;31.55;;;;;;;0.99;72.30;101026.80;125414;1127;22450;-76
2021/01/10 01:55:31;;;;;;;41.00;32.17;;;;;;;0.96;72.35;101025.21;125400;1127;22615;-76
2021/01/10 01:57:59;;;;;;;51.37;33.23;;;;;;;1.00;73.18;101031.08;125404;1127;22466;-76
2021/01/10 02:00:27;;;;;;;45.43;31.17;;;;;;;1.01;73.05;101030.16;125394;1127;22468;-76
2021/01/10 02:02:55;;;;;;;42.70;30.37;;;;;;;0.99;72.11;101032.01;125411;1127;24581;-76
2021/01/10 02:05:28;;;;;;;38.30;27.98;;;;;;;0.97;72.23;101026.91;125350;1127;22437;-76
2021/01/10 02:08:05;;;;;;;37.03;30.23;;;;;;;0.92;73.13;101021.95;125327;1127;24561;-76
2021/01/10 02:10:37;;;;;;;45.83;30.75;;;;;;;0.92;73.26;101024.56;125446;1127;24584;-76
2021/01/10 02:13:11;;;;;;;;;;;;;;;0.93;72.70;101020.19;125439;1127;22544;-75
2021/01/10 02:15:41;;;;;;;43.52;30.43;;;;;;;0.88;73.24;101024.84;125481;1129;21317;-76
2021/01/10 02:18:12;;;;;;;45.43;30.70;;;;;;;0.87;72.96;101025.77;125375;1127;23412;-76
2021/01/10 02:20:41;;;;;;;40.33;30.62;;;;;;;0.84;72.83;101018.97;125450;1125;22440;-76
2021/01/10 02:23:25;;;;;;;42.67;30.60;;;;;;;0.85;72.46;101031.05;125413;1127;22440;-77
2021/01/10 02:25:54;;;;;;;41.13;30.68;;;;;;;0.83;73.29;101026.85;125462;1127;24367;-76
2021/01/10 02:28:26;;;;;;;40.52;29.82;;;;;;;0.83;72.88;101021.65;125465;1127;24297;-76
2021/01/10 02:30:57;;;;;;;40.78;29.35;;;;;;;0.83;73.45;101024.25;125396;1127;24697;-76
2021/01/10 02:33:38;;;;;;;43.00;28.95;;;;;;;0.86;72.87;101026.67;125432;1127;24588;-77
2021/01/10 02:36:18;;;;;;;43.20;31.90;;;;;;;0.86;72.62;101022.30;125390;1126;25139;-76
2021/01/10 02:39:12;;;;;;;42.25;31.48;;;;;;;0.87;73.61;101025.77;125430;1127;22538;-76
2021/01/10 02:41:50;;;;;;;41.92;32.80;;;;;;;0.87;73.59;101013.59;125384;1126;22519;-76
2021/01/10 02:44:32;;;;;;;47.43;34.30;;;;;;;0.86;72.91;101027.51;125348;1130;22441;-76
2021/01/10 02:47:01;;;;;;;47.25;32.93;;;;;;;0.86;73.66;101024.91;125409;1127;24322;-76
2021/01/10 02:49:29;;;;;;;46.15;33.85;;;;;;;0.89;73.18;101032.53;125355;1129;22434;-76
2021/01/10 02:51:58;;;;;;;45.55;32.95;;;;;;;0.92;73.68;101023.72;125399;1127;22454;-76
2021/01/10 02:54:27;;;;;;;43.33;33.73;;;;;;;0.92;73.48;101039.33;125366;1127;24559;-76
2021/01/10 02:57:15;;;;;;;49.30;34.87;;;;;;;0.92;72.91;101039.33;125376;1127;22633;-76
2021/01/10 02:59:48;;;;;;;49.18;34.38;;;;;;;0.93;73.82;101048.80;125490;1127;22437;-76
2021/01/10 03:02:20;;;;;;;52.43;35.88;;;;;;;0.96;73.81;101042.59;125501;1128;22442;-76
2021/01/10 03:04:50;;;;;;;51.85;33.42;;;;;;;0.98;73.22;101043.35;125418;1127;22495;-76
2021/01/10 03:07:18;;;;;;;51.83;33.55;;;;;;;0.96;73.45;101053.00;125431;1127;24559;-76
2021/01/10 03:09:47;;;;;;;46.63;31.97;;;;;;;0.93;73.55;101047.06;125408;1128;22521;-76
2021/01/10 03:12:25;;;;;;;42.80;31.87;;;;;;;0.91;72.90;101042.87;125368;1127;22494;-77
2021/01/10 03:14:59;;;;;;;47.58;33.18;;;;;;;0.92;73.17;101049.73;125340;1128;22683;-77
2021/01/10 03:17:41;;;;;;;40.00;30.40;;;;;;;0.91;73.17;101042.87;125340;1129;22448;-78
2021/01/10 03:20:15;;;;;;;41.10;31.52;;;;;;;0.91;73.01;101037.67;125399;1127;22456;-78
2021/01/10 03:22:45;;;;;;;49.40;33.30;;;;;;;0.94;73.56;101045.30;125371;1127;24258;-78
2021/01/10 03:25:17;;;;;;;47.98;31.55;;;;;;;0.97;73.69;101039.92;125448;1130;22459;-78
2021/01/10 03:27:46;;;;;;;48.58;30.75;;;;;;;0.98;73.52;101046.78;125384;1129;22447;-77
2021/01/10 03:30:18;;;;;;;48.35;32.90;;;;;;;1.00;73.43;101034.54;125413;1127;22413;-78
2021/01/10 03:32:46;;;;;;;48.05;34.67;;;;;;;1.00;73.98;101034.54;125437;1128;22447;-78
2021/01/10 03:35:15;;;;;;;49.00;34.40;;;;;;;1.01;73.21;101035.38;125404;1128;22448;-77
2021/01/10 03:37:45;;;;;;;46.23;33.90;;;;;;;1.02;73.50;101024.03;125291;1127;22462;-77
2021/01/10 03:40:14;;;;;;;46.55;33.98;;;;;;;1.02;73.65;101024.86;125383;1127;23722;-78
2021/01/10 03:42:44;;;;;;;48.63;34.03;;;;;;;1.03;74.24;101028.30;125413;1127;22545;-78
2021/01/10 03:45:16;;;;;;;47.78;33.30;;;;;;;1.04;73.71;101032.59;125395;1127;24373;-78
2021/01/10 03:47:44;;;;;;;42.95;32.65;;;;;;;1.03;73.22;101025.69;125428;1127;24582;-78
2021/01/10 03:50:14;;;;;;;48.20;34.20;;;;;;;1.00;73.55;101025.87;125394;1127;22448;-79
2021/01/10 03:52:42;;;;;;;49.27;34.05;;;;;;;0.97;73.35;101036.45;125342;1127;22459;-78
2021/01/10 03:55:11;;;;;;;52.80;34.30;;;;;;;0.96;73.63;101040.82;125370;1130;23374;-79
2021/01/10 03:57:40;;;;;;;49.73;34.00;;;;;;;0.97;73.77;101037.31;125387;1127;22445;-79
2021/01/10 04:00:11;;;;;;;50.55;34.30;;;;;;;1.02;73.52;101031.83;125392;1129;22500;-79
2021/01/10 04:02:40;;;;;;;;;;;;;;;0.99;73.23;101032.01;125442;1128;22544;-79
2021/01/10 04:05:10;;;;;;;46.88;33.98;;;;;;;0.95;74.26;101031.35;125364;1127;21328;-79
2021/01/10 04:07:39;;;;;;;50.10;33.67;;;;;;;0.97;73.47;101032.11;125404;1127;22457;-79
2021/01/10 04:10:07;;;;;;;50.48;33.45;;;;;;;1.02;74.29;101031.83;125391;1129;22456;-79
2021/01/10 04:12:36;;;;;;;48.63;32.80;;;;;;;1.02;74.16;101019.66;125401;1130;22447;-79
2021/01/10 04:15:06;;;;;;;43.17;32.20;;;;;;;1.06;73.71;101038.52;125424;1128;22479;-79
2021/01/10 04:17:34;;;;;;;41.92;31.40;;;;;;;1.05;73.89;101035.09;125409;1127;24585;-79
2021/01/10 04:20:04;;;;;;;40.67;29.40;;;;;;;1.02;73.98;101027.46;125410;1127;22440;-76
2021/01/10 04:22:33;;;;;;;50.67;33.85;;;;;;;1.01;73.67;101032.77;125410;1130;22548;-77
2021/01/10 04:25:01;;;;;;;47.13;33.80;;;;;;;0.99;73.78;101032.84;125395;1129;22426;-78
2021/01/10 04:27:30;;;;;;;47.50;31.30;;;;;;;1.01;73.70;101035.38;125396;1127;22462;-77
2021/01/10 04:29:58;;;;;;;41.55;30.90;;;;;;;1.03;74.47;101033.50;125396;1127;24306;-77
2021/01/10 04:32:27;;;;;;;47.10;31.82;;;;;;;1.02;73.72;101040.47;125395;1131;22447;-77
2021/01/10 04:34:55;;;;;;;53.00;31.90;;;;;;;1.01;74.20;101035.38;125468;1127;24575;-77
2021/01/10 04:37:23;;;;;;;51.63;33.53;;;;;;;1.01;73.74;101046.61;125394;1130;22564;-77
2021/01/10 04:39:53;;;;;;;47.25;31.90;;;;;;;1.04;73.79;101040.40;125392;1127;22554;-77
2021/01/10 04:42:22;;;;;;;45.03;32.35;;;;;;;1.08;73.91;101041.89;125295;1127;22460;-77
2021/01/10 04:44:51;;;;;;;43.50;31.80;;;;;;;1.08;73.73;101042.72;125312;1127;22544;-77
2021/01/10 04:47:20;;;;;;;46.68;30.72;;;;;;;1.11;73.65;101042.55;125371;1128;22444;-77
2021/01/10 04:49:49;;;;;;;42.33;30.85;;;;;;;1.11;73.99;101037.34;125360;1127;22463;-77
2021/01/10 04:52:20;;;;;;;44.55;32.00;;;;;;;1.07;73.63;101040.22;125408;1127;22438;-77
2021/01/10 04:54:51;;;;;;;46.47;32.37;;;;;;;1.07;74.29;101042.83;125377;1127;22438;-77
2021/01/10 04:57:22;;;;;;;42.38;31.50;;;;;;;1.08;73.80;101034.08;125379;1127;22439;-77
2021/01/10 04:59:54;;;;;;;36.98;29.87;;;;;;;1.10;74.42;101033.06;125357;1127;24332;-77
2021/01/10 05:02:31;;;;;;;40.92;28.73;;;;;;;1.11;74.34;101036.50;125366;1127;24574;-77
2021/01/10 05:05:00;;;;;;;37.03;29.40;;;;;;;1.13;73.69;101042.44;125161;1128;22448;-78
2021/01/10 05:07:30;;;;;;;40.23;31.48;;;;;;;1.13;73.80;101040.70;125234;1127;22457;-78
2021/01/10 05:09:58;;;;;;;40.98;30.90;;;;;;;1.13;73.88;101040.70;125025;1127;24655;-78
2021/01/10 05:12:27;;;;;;;38.15;28.87;;;;;;;1.10;73.65;101043.48;125055;1129;22441;-77
2021/01/10 05:14:55;;;;;;;40.70;30.25;;;;;;;1.11;74.10;101044.31;125359;1129;22589;-78
2021/01/10 05:17:24;;;;;;;39.75;30.95;;;;;;;1.13;73.77;101048.50;125359;1129;22541;-78
2021/01/10 05:19:54;;;;;;;43.52;31.25;;;;;;;1.10;74.21;101053.02;125345;1127;22782;-76
2021/01/10 05:22:22;;;;;;;43.40;31.15;;;;;;;1.06;73.80;101048.94;125389;1127;22445;-76
2021/01/10 05:24:50;;;;;;;39.48;30.27;;;;;;;1.06;73.84;101056.73;125318;1129;22545;-76
2021/01/10 05:27:19;;;;;;;43.50;32.45;;;;;;;1.06;73.90;101065.38;125332;1130;23262;-76
2021/01/10 05:29:47;;;;;;;50.00;33.02;;;;;;;1.08;74.74;101060.94;124993;1127;22460;-77
2021/01/10 05:32:19;;;;;;;46.30;32.53;;;;;;;1.11;74.63;101068.56;125324;1129;22497;-77
2021/01/10 05:35:01;;;;;;;42.73;32.42;;;;;;;1.14;74.67;101059.75;125320;1130;22547;-77
2021/01/10 05:37:29;;;;;;;43.70;31.17;;;;;;;1.14;73.57;101064.95;125352;1129;22462;-76
2021/01/10 05:39:58;;;;;;;48.40;32.98;;;;;;;1.11;73.90;101062.53;125333;1127;23337;-76
2021/01/10 05:42:29;;;;;;;45.00;32.20;;;;;;;1.07;74.35;101076.65;125307;1128;22542;-76
2021/01/10 05:44:59;;;;;;;45.35;31.93;;;;;;;1.05;74.29;101063.71;125363;1127;22990;-76
2021/01/10 05:47:38;;;;;;;47.27;30.00;;;;;;;1.06;74.76;101072.35;125334;1127;22443;-77
2021/01/10 05:50:14;;;;;;;43.73;30.82;;;;;;;1.05;74.24;101070.69;125431;1131;22901;-76
2021/01/10 05:52:43;;;;;;;40.90;31.55;;;;;;;1.08;74.09;101070.51;125431;1127;23286;-77
2021/01/10 05:55:12;;;;;;;45.10;30.05;;;;;;;1.08;74.69;101078.31;125357;1128;22441;-76
2021/01/10 05:57:41;;;;;;;51.95;34.90;;;;;;;1.08;74.48;101076.55;125334;1129;22459;-78
2021/01/10 06:00:10;;;;;;;51.40;33.02;;;;;;;1.08;73.82;101073.95;125370;1127;24562;-76
2021/01/10 06:02:39;;;;;;;64.27;37.83;;;;;;;1.10;74.70;101087.72;125428;1129;22481;-77
2021/01/10 06:05:09;;;;;;;61.20;38.80;;;;;;;1.13;74.32;101086.67;125236;1127;25296;-79
2021/01/10 06:07:38;;;;;;;59.50;40.23;;;;;;;1.16;74.29;101091.70;125099;1128;22498;-75
2021/01/10 06:10:09;;;;;;;52.53;37.83;;;;;;;1.16;74.02;101097.74;125007;1132;22514;-76
2021/01/10 06:12:42;;;;;;;63.63;44.33;;;;;;;1.16;74.81;101091.70;124999;1129;22513;-76
2021/01/10 06:15:12;;;;;;;;;;;;;;;1.11;74.67;101091.98;125143;1129;22469;-76
2021/01/10 06:17:50;;;;;;;61.23;41.30;;;;;;;1.09;75.04;101092.99;125004;1130;21321;-76
2021/01/10 06:20:34;;;;;;;53.33;39.20;;;;;;;1.12;74.32;101093.65;125053;1127;22514;-76
2021/01/10 06:23:07;;;;;;;52.05;35.43;;;;;;;1.11;74.08;101089.38;125043;1129;22472;-76
2021/01/10 06:25:38;;;;;;;45.60;31.85;;;;;;;1.10;74.18;101092.92;125123;1127;22460;-76
2021/01/10 06:28:19;;;;;;;44.05;33.02;;;;;;;1.12;74.98;101095.42;125055;1129;22464;-75
2021/01/10 06:30:59;;;;;;;46.55;34.27;;;;;;;1.09;75.10;101101.63;125049;1130;22459;-77
2021/01/10 06:33:30;;;;;;;46.40;34.95;;;;;;;1.12;74.60;101103.23;125032;1127;22465;-76
2021/01/10 06:36:07;;;;;;;48.07;34.40;;;;;;;1.16;75.24;101104.72;125452;1127;22478;-76
2021/01/10 06:38:38;;;;;;;41.68;32.45;;;;;;;1.22;75.06;101101.77;125316;1127;22453;-76
2021/01/10 06:41:35;;;;;;;41.73;30.90;;;;;;;1.24;74.97;101104.30;125360;1127;22496;-76
2021/01/10 06:44:06;;;;;;;47.38;33.42;;;;;;;1.21;74.80;101113.11;125389;1127;24059;-75
2021/01/10 06:46:34;;;;;;;48.85;32.42;;;;;;;1.22;74.25;101109.57;125070;1127;22454;-76
2021/01/10 06:49:05;;;;;;;42.25;31.37;;;;;;;1.17;74.81;101107.25;125214;1127;22463;-75
2021/01/10 06:51:37;;;;;;;45.75;31.05;;;;;;;1.14;74.96;101110.03;125031;1129;22446;-75
2021/01/10 06:54:06;;;;;;;44.85;30.92;;;;;;;1.12;74.82;101113.63;125416;1127;25046;-75
2021/01/10 06:56:34;;;;;;;43.50;33.57;;;;;;;1.14;75.15;101117.00;125350;1130;22478;-76
2021/01/10 06:59:10;;;;;;;49.15;34.25;;;;;;;1.15;74.60;101122.10;125073;1129;22510;-75
2021/01/10 07:01:50;;;;;;;48.80;33.78;;;;;;;1.17;74.31;101116.83;125406;1127;22454;-79
2021/01/10 07:04:24;;;;;;;59.67;46.95;;;;;;;1.15;75.03;101119.50;125428;1127;24389;-76
2021/01/10 07:06:53;;;;;;;61.25;39.63;;;;;;;1.15;74.40;101121.27;125377;1130;22444;-75
2021/01/10 07:09:23;;;;;;;55.03;38.53;;;;;;;1.16;75.31;101113.36;125245;1130;23382;-75
2021/01/10 07:11:51;;;;;;;77.58;46.30;;;;;;;1.15;75.12;101121.27;124972;1127;62368;-75
2021/01/10 07:14:25;;;;;;;69.45;43.55;;;;;;;1.16;74.45;101122.94;125025;1127;22580;-75
2021/01/10 07:17:10;;;;;;;75.72;45.23;;;;;;;1.19;75.12;101120.16;125032;1130;22489;-77
2021/01/10 07:19:47;;;;;;;74.00;48.52;;;;;;;1.21;74.78;101113.11;125117;1129;22447;-77
2021/01/10 07:22:23;;;;;;;57.35;38.10;;;;;;;1.24;75.18;101112.10;125408;1129;22818;-77
2021/01/10 07:24:52;;;;;;;60.30;42.15;;;;;;;1.18;74.24;101118.49;125071;1130;22462;-77
2021/01/10 07:27:32;;;;;;;79.85;54.98;;;;;;;1.15;74.55;101119.50;125388;1128;22505;-77
2021/01/10 07:30:24;;;;;;;63.02;50.23;;;;;;;1.16;74.78;101128.14;125198;1127;22541;-77
2021/01/10 07:32:52;;;;;;;54.42;40.67;;;;;;;1.22;74.89;101127.80;125043;1127;22492;-77
2021/01/10 07:35:20;;;;;;;57.73;47.55;;;;;;;1.29;75.61;101129.11;125032;1129;22456;-78
2021/01/10 07:37:51;;;;;;;64.50;53.85;;;;;;;1.33;74.59;101130.63;125011;1127;22442;-78
2021/01/10 07:40:24;;;;;;;65.00;53.30;;;;;;;1.32;74.69;101126.33;125181;1130;22440;-78
2021/01/10 07:43:02;;;;;;;62.90;48.53;;;;;;;1.31;74.69;101131.64;125099;1127;22459;-78
2021/01/10 07:45:39;;;;;;;56.60;43.20;;;;;;;1.35;75.21;101130.53;125039;1129;22475;-78
2021/01/10 07:48:08;;;;;;;62.48;48.78;;;;;;;1.43;75.15;101132.67;125364;1128;22451;-78
2021/01/10 07:50:36;;;;;;;65.85;49.42;;;;;;;1.49;75.00;101127.94;125077;1127;25142;-78
2021/01/10 07:53:04;;;;;;;68.30;56.95;;;;;;;1.54;75.51;101132.91;125376;1129;22468;-78
2021/01/10 07:55:35;;;;;;;62.27;50.93;;;;;;;1.57;75.08;101122.30;125359;1127;25014;-76
2021/01/10 07:58:05;;;;;;;58.40;43.73;;;;;;;1.62;75.40;101133.27;125352;1129;22465;-77
2021/01/10 08:00:50;;;;;;;54.73;40.58;;;;;;;1.68;75.09;101125.09;125386;1130;22464;-78
2021/01/10 08:03:25;;;;;;;61.42;38.90;;;;;;;1.75;75.08;101125.56;125397;1128;22450;-77
2021/01/10 08:06:03;;;;;;;53.28;38.38;;;;;;;1.86;75.12;101136.17;125417;1129;22573;-83
2021/01/10 08:08:45;;;;;;;56.02;39.90;;;;;;;1.96;75.04;101129.47;125595;1129;22443;-80
2021/01/10 08:11:31;;;;;;;63.25;43.90;;;;;;;2.05;75.84;101135.90;125637;1127;22443;-80
2021/01/10 08:14:01;;;;;;;52.45;39.45;;;;;;;2.12;75.36;101138.03;125318;1127;22444;-80
2021/01/10 08:16:33;;;;;;;58.58;41.08;;;;;;;2.19;75.57;101137.66;125567;1127;24268;-81
2021/01/10 08:19:07;;;;;;;50.08;38.63;;;;;;;2.20;74.38;101142.80;125446;1128;22451;-80
2021/01/10 08:21:36;;;;;;;54.50;40.15;;;;;;;2.22;74.33;101140.91;125569;1130;22445;-79
2021/01/10 08:24:07;;;;;;;60.87;43.97;;;;;;;2.30;74.34;101141.29;125146;1129;22902;-80
2021/01/10 08:26:43;;;;;;;67.27;47.10;;;;;;;2.36;74.42;101140.05;125432;1127;24598;-81
2021/01/10 08:29:12;;;;;;;66.62;48.60;;;;;;;2.41;74.33;101145.00;125539;1127;24594;-80
2021/01/10 08:31:41;;;;;;;59.25;46.10;;;;;;;2.41;74.64;101143.22;125063;1131;22874;-80
2021/01/10 08:34:16;;;;;;;60.35;49.13;;;;;;;2.41;74.22;101145.00;125335;1128;23465;-80
2021/01/10 08:36:47;;;;;;;62.17;47.43;;;;;;;2.34;73.07;101149.76;125566;1130;22483;-80
2021/01/10 08:39:20;;;;;;;76.42;53.83;;;;;;;2.32;73.40;101147.23;125507;1127;22460;-79
2021/01/10 08:41:49;;;;;;;82.00;58.10;;;;;;;2.24;73.58;101156.47;125558;1129;22450;-81
2021/01/10 08:44:20;;;;;;;75.28;53.02;;;;;;;2.17;73.13;101148.19;125690;1127;22895;-80
2021/01/10 08:46:54;;;;;;;67.58;49.48;;;;;;;2.19;73.93;101155.91;125381;1127;22461;-81
2021/01/10 08:49:25;;;;;;;71.80;48.52;;;;;;;2.20;72.97;101161.04;125364;1127;24568;-81
2021/01/10 08:51:54;;;;;;;70.72;49.90;;;;;;;2.19;73.53;101163.72;125697;1127;23314;-80
2021/01/10 08:54:24;;;;;;;67.30;50.08;;;;;;;2.18;73.84;101155.07;125322;1130;22456;-81
2021/01/10 08:56:57;;;;;;;64.87;46.18;;;;;;;2.17;72.94;101161.23;125619;1127;22501;-80
2021/01/10 08:59:39;;;;;;;81.72;53.35;;;;;;;2.17;73.91;101166.44;125415;1127;22464;-80
2021/01/10 09:02:11;;;;;;;78.20;51.40;;;;;;;2.18;73.35;101173.31;125064;1130;22448;-80
2021/01/10 09:04:44;;;;;;;67.73;48.00;;;;;;;2.15;72.82;101176.11;125334;1130;22548;-80
2021/01/10 09:07:25;;;;;;;69.00;51.00;;;;;;;2.11;72.75;101169.41;125144;1129;22618;-79
2021/01/10 09:10:08;;;;;;;68.15;50.20;;;;;;;2.09;73.39;101172.09;125086;1129;23227;-81
2021/01/10 09:12:48;;;;;;;79.30;54.20;;;;;;;2.09;72.95;101168.66;125401;1127;22446;-78
2021/01/10 09:15:32;;;;;;;78.28;52.73;;;;;;;2.07;72.91;101173.14;125357;1127;25015;-79
2021/01/10 09:18:14;;;;;;;78.57;54.08;;;;;;;2.10;73.18;101175.56;125580;1130;22444;-82
2021/01/10 09:21:15;;;;;;;81.60;60.90;;;;;;;2.17;74.04;101181.25;125577;1129;22635;-81
2021/01/10 09:23:55;;;;;;;66.15;47.95;;;;;;;2.20;73.88;101184.50;125623;1130;22669;-81
2021/01/10 09:26:29;;;;;;;51.35;40.08;;;;;;;2.23;73.29;101186.92;125403;1127;22473;-79
2021/01/10 09:29:00;;;;;;;57.33;45.30;;;;;;;2.23;73.47;101181.71;125413;1127;24239;-79
2021/01/10 09:31:46;;;;;;;63.58;49.83;;;;;;;2.21;73.76;101186.17;125109;1127;22456;-80
2021/01/10 09:34:15;;;;;;;64.58;49.90;;;;;;;2.24;73.43;101190.37;125428;1127;22452;-80
2021/01/10 09:36:44;;;;;;;65.30;51.33;;;;;;;2.29;73.69;101194.34;125560;1127;22503;-80
2021/01/10 09:39:12;;;;;;;55.43;44.40;;;;;;;2.38;73.01;101186.91;125392;1129;22536;-80
2021/01/10 09:41:54;;;;;;;57.13;43.02;;;;;;;2.36;73.41;101182.60;125624;1129;22457;-79
2021/01/10 09:44:22;;;;;;;52.73;43.17;;;;;;;2.33;72.71;101193.25;125384;1127;22547;-80
2021/01/10 09:46:54;;;;;;;59.75;44.45;;;;;;;2.34;73.55;101192.31;125084;1127;22545;-80
2021/01/10 09:49:29;;;;;;;61.08;46.18;;;;;;;2.39;73.22;101183.36;125379;1127;22516;-80
2021/01/10 09:52:11;;;;;;;59.63;46.60;;;;;;;2.44;73.67;101186.53;125338;1129;22460;-79
2021/01/10 09:54:41;;;;;;;64.80;49.10;;;;;;;2.49;72.71;101180.08;125461;1127;22476;-78
2021/01/10 09:57:09;;;;;;;58.00;43.65;;;;;;;2.54;72.50;101175.42;125357;1127;22457;-80
2021/01/10 09:59:42;;;;;;;59.58;46.88;;;;;;;2.58;73.04;101176.91;125426;1127;22455;-80
2021/01/10 10:02:25;;;;;;;56.90;44.77;;;;;;;2.56;73.17;101173.55;125657;1127;22459;-78
2021/01/10 10:05:22;;;;;;;74.50;54.27;;;;;;;2.56;73.14;101167.49;125280;1127;24368;-79
2021/01/10 10:08:00;;;;;;;75.87;55.17;;;;;;;2.56;72.24;101163.11;125270;1127;25830;-79
2021/01/10 10:10:30;;;;;;;84.07;57.62;;;;;;;2.59;73.09;101160.31;125404;1130;22437;-79
2021/01/10 10:13:05;;;;;;;82.80;58.87;;;;;;;2.64;72.59;101154.82;125478;1127;22543;-79
2021/01/10 10:15:45;;;;;;;76.12;54.30;;;;;;;2.68;72.74;101160.68;125129;1129;22440;-79
2021/01/10 10:18:23;;;;;;;69.22;54.42;;;;;;;2.71;72.98;101156.10;125432;1127;22535;-79
2021/01/10 10:20:52;;;;;;;67.17;52.58;;;;;;;2.72;72.31;101155.16;125447;1127;22548;-80
2021/01/10 10:23:21;;;;;;;60.95;47.27;;;;;;;2.75;72.87;101156.74;125401;1127;22567;-78
2021/01/10 10:25:51;;;;;;;78.92;68.83;;;;;;;2.68;72.32;101158.91;125390;1128;22523;-78
2021/01/10 10:28:20;;;;;;;76.42;60.38;;;;;;;2.67;72.68;101159.02;125387;1127;22459;-78
2021/01/10 10:30:49;;;;;;;74.92;56.80;;;;;;;2.71;72.59;101160.48;125442;1126;36906;-78
2021/01/10 10:33:19;;;;;;;63.20;49.40;;;;;;;2.71;71.67;101160.48;125381;1127;22420;-80
2021/01/10 10:35:47;;;;;;;65.70;50.25;;;;;;;2.72;72.44;101154.33;125751;1129;22306;-81
2021/01/10 10:38:16;;;;;;;63.17;51.00;;;;;;;2.75;72.34;101154.13;125416;1129;22450;-78
2021/01/10 10:40:45;;;;;;;68.02;54.98;;;;;;;2.75;71.75;101160.19;125414;1127;22431;-77
2021/01/10 10:43:13;;;;;;;99.17;80.05;;;;;;;2.80;72.65;101157.30;125420;1127;22426;-78
2021/01/10 10:45:41;;;;;;;137.50;107.80;;;;;;;2.85;71.78;101154.38;125416;1129;22532;-79
2021/01/10 10:48:10;;;;;;;69.00;55.75;;;;;;;2.88;72.26;101148.97;125403;1127;22427;-78
2021/01/10 10:50:38;;;;;;;74.72;56.42;;;;;;;2.93;71.88;101146.89;125383;1129;22414;-78
2021/01/10 10:53:08;;;;;;;60.60;49.45;;;;;;;2.91;71.29;101140.95;125361;1129;22429;-80
2021/01/10 10:55:36;;;;;;;65.28;54.08;;;;;;;2.89;72.02;101153.25;125442;1127;22447;-78
2021/01/10 10:58:05;;;;;;;73.83;63.10;;;;;;;2.87;71.63;101144.70;125433;1127;22462;-79
2021/01/10 11:00:35;;;;;;;75.83;61.48;;;;;;;2.82;71.47;101148.41;125510;1127;22456;-80
2021/01/10 11:03:03;;;;;;;82.92;67.00;;;;;;;2.82;71.75;101142.36;125470;1129;22433;-80
2021/01/10 11:05:32;;;;;;;77.27;60.45;;;;;;;2.81;71.33;101146.75;125421;1127;24587;-78
2021/01/10 11:08:00;;;;;;;78.87;60.85;;;;;;;2.75;71.01;101141.92;125319;1131;22451;-79
2021/01/10 11:10:29;;;;;;;92.15;72.50;;;;;;;2.68;71.71;101139.81;125435;1127;22502;-80
2021/01/10 11:12:58;;;;;;;76.53;58.55;;;;;;;2.69;71.88;101139.70;125435;1127;22461;-79
2021/01/10 11:15:27;;;;;;;55.73;45.85;;;;;;;2.70;71.90;101141.39;125434;1127;22457;-79
2021/01/10 11:17:55;;;;;;;61.25;49.45;;;;;;;2.69;72.00;101136.25;125471;1127;22421;-78
2021/01/10 11:20:24;;;;;;;70.25;56.68;;;;;;;2.70;71.88;101137.92;125393;1127;22485;-78
2021/01/10 11:23:03;;;;;;;60.78;49.70;;;;;;;2.73;71.52;101138.59;125454;1126;24364;-77
2021/01/10 11:25:32;;;;;;;73.20;62.73;;;;;;;2.72;71.66;101139.50;125576;1127;22527;-79
2021/01/10 11:28:00;;;;;;;69.95;57.17;;;;;;;2.71;70.96;101137.84;125395;1127;24332;-79
2021/01/10 11:30:29;;;;;;;71.27;58.73;;;;;;;2.73;72.00;101141.20;125414;1127;22456;-79